Etusivu
METAR-TAF:

METAR-TAF

Lentoasemat :

Christchurch, Uusi-Seelanti

Leveyspiiri: 43-29S, Pituuspiiri: 172-33E, korkeus merenpinnasta: 38 m

Tämänhetkinen sää

Tämä raportti tehtiin 47 minuuttia sitten, kello 00.30 UTC
Tuuli 12 kn koillisesta
Lämpötila 12°C
Kosteus 71%
Ilmanpaine 1018 hPa
Näkyvyys 10 km tai enemmän

METAR: NZCH 250030Z AUTO 04012KT 9999 NCD 12/07 Q1018 NOSIG

Aika: 13:17 (01:17 UTC)

Sääennuste

Tämä raportti tehtiin 20 minuuttia sitten, kello 00.57 UTC
Ennuste voimassa 25. päivästä klo 00 UTC - 26. päivään klo 00 UTC
Tuuli 15 kn koillisesta
Näkyvyys 10 km tai enemmän
Muutamia pilviä 3000 ft:n korkeudessa
Tulossa
25. päivästä klo 06 UTC - 25. päivään klo 08 UTC
Tuuli 5 kn koillisesta
Todennäköisyys 40%
25. päivästä klo 10 UTC - 25. päivään klo 21 UTC
Näkyvyys: 0400 m
sumua

TAF: NZCH 250057Z 2500/2600 04015KT 9999 FEW030 BECMG 2506/2508 04005KT PROB40 2510/2521 0400 FG

Säähavainnot ja -ennusteet yli 4000 lentoasemalta (METAR- ja TAF-raportit).

Käytössä olevat sääasemat on merkitty karttaan keltaisilla ja punaisilla pisteillä.

Aseta hiiri pisteen päälle nähdäksesi sääaseman nimen.

Klikkaa sitten nähdäksesi säähavainnot ja -ennusteet.

Kartan vaihtaminen: klikkaa mustalla rastilla varustettuja vihreitä pisteitä, niin voit zoomata sisään; viivalla varustettua vihreää pistettä, niin voit zoomata ulos tai vihreitä nuolia, niin pääset viereisille kartoille.


METAR-TAF: